createdAt,value
2023-01-30T00:02:07.800Z,5.85
2023-01-30T00:04:36.515Z,5.82
2023-01-30T00:07:06.978Z,5.80
2023-01-30T00:09:35.568Z,5.74
2023-01-30T00:12:03.894Z,5.66
2023-01-30T00:14:32.501Z,5.59
2023-01-30T00:17:01.143Z,5.56
2023-01-30T00:19:29.902Z,5.54
2023-01-30T00:21:58.682Z,5.55
2023-01-30T00:24:28.806Z,5.56
2023-01-30T00:26:57.373Z,5.55
2023-01-30T00:29:26.145Z,5.56
2023-01-30T00:31:54.784Z,5.59
2023-01-30T00:34:23.296Z,5.58
2023-01-30T00:37:07.167Z,5.65
2023-01-30T00:39:38.681Z,5.68
2023-01-30T00:42:24.963Z,5.68
2023-01-30T00:45:11.090Z,5.72
2023-01-30T00:47:40.800Z,5.73
2023-01-30T00:50:10.852Z,5.71
2023-01-30T00:52:39.782Z,5.70
2023-01-30T00:55:10.604Z,5.63
2023-01-30T00:57:38.939Z,5.60
2023-01-30T01:00:11.653Z,5.57
2023-01-30T01:02:41.325Z,5.58
2023-01-30T01:05:10.621Z,5.60
2023-01-30T01:07:42.154Z,5.67
2023-01-30T01:10:17.084Z,5.68
2023-01-30T01:12:45.767Z,5.69
2023-01-30T01:15:15.832Z,5.70
2023-01-30T01:17:45.922Z,5.71
2023-01-30T01:20:15.291Z,5.72
2023-01-30T01:22:45.289Z,5.74
2023-01-30T01:25:15.396Z,5.75
2023-01-30T01:27:44.173Z,5.76
2023-01-30T01:30:14.301Z,5.74
2023-01-30T01:32:43.044Z,5.79
2023-01-30T01:35:12.832Z,5.69
2023-01-30T01:37:41.495Z,5.58
2023-01-30T01:40:34.953Z,5.55
2023-01-30T01:43:15.806Z,5.52
2023-01-30T01:45:45.288Z,5.46
2023-01-30T01:48:20.606Z,5.42
2023-01-30T01:50:55.263Z,5.39
2023-01-30T01:53:29.944Z,5.38
2023-01-30T01:56:01.580Z,5.30
2023-01-30T01:58:38.732Z,5.28
2023-01-30T02:01:09.566Z,5.28
2023-01-30T02:03:43.040Z,5.24
2023-01-30T02:06:13.475Z,5.21
2023-01-30T02:08:47.316Z,5.20
2023-01-30T02:11:23.153Z,5.15
2023-01-30T02:13:53.893Z,5.13
2023-01-30T02:16:22.873Z,5.12
2023-01-30T02:18:52.335Z,5.10
2023-01-30T02:21:51.652Z,5.10
2023-01-30T02:24:46.386Z,5.18
2023-01-30T02:27:30.251Z,5.23
2023-01-30T02:30:28.493Z,5.33
2023-01-30T02:33:10.837Z,5.40
2023-01-30T02:35:50.552Z,5.44
2023-01-30T02:38:32.792Z,5.45
2023-01-30T02:41:16.069Z,5.48
2023-01-30T02:43:56.904Z,5.51
2023-01-30T02:46:32.459Z,5.54
2023-01-30T02:49:09.758Z,5.55
2023-01-30T02:51:41.012Z,5.54
2023-01-30T02:54:12.570Z,5.58
2023-01-30T02:56:47.332Z,5.59
2023-01-30T02:59:20.149Z,5.59
2023-01-30T03:02:16.314Z,5.63
2023-01-30T03:05:16.984Z,5.63
2023-01-30T03:07:52.635Z,5.67
2023-01-30T03:10:31.834Z,5.67
2023-01-30T03:13:08.970Z,5.70
2023-01-30T03:15:44.182Z,5.74
2023-01-30T03:18:13.471Z,5.73
2023-01-30T03:20:43.943Z,5.73
2023-01-30T03:23:12.681Z,5.78
2023-01-30T03:25:45.130Z,5.80
2023-01-30T03:28:17.731Z,5.79
2023-01-30T03:30:46.339Z,5.80
2023-01-30T03:33:16.843Z,5.78
2023-01-30T03:35:47.202Z,5.78
2023-01-30T03:38:16.460Z,5.79
2023-01-30T03:40:45.128Z,5.78
2023-01-30T03:43:13.688Z,5.76
2023-01-30T03:45:42.296Z,5.77
2023-01-30T03:48:10.889Z,5.78
2023-01-30T03:50:39.409Z,5.79
2023-01-30T03:53:09.620Z,5.79
2023-01-30T03:55:39.529Z,5.76
2023-01-30T03:58:08.473Z,5.75
2023-01-30T04:00:37.294Z,5.72
2023-01-30T04:03:05.954Z,5.70
2023-01-30T04:05:34.725Z,5.69
2023-01-30T04:08:03.681Z,5.66
2023-01-30T04:10:33.891Z,5.66
2023-01-30T04:13:02.653Z,5.68
2023-01-30T04:15:31.263Z,5.66
2023-01-30T04:18:01.011Z,5.67
2023-01-30T04:20:29.971Z,5.73
2023-01-30T04:22:58.490Z,5.74
2023-01-30T04:25:27.090Z,5.73
2023-01-30T04:27:56.934Z,5.76
2023-01-30T04:30:25.658Z,5.70
2023-01-30T04:32:54.640Z,5.65
2023-01-30T04:35:23.337Z,5.58
2023-01-30T04:37:52.056Z,5.55
2023-01-30T04:40:21.780Z,5.48
2023-01-30T04:42:51.519Z,5.43
2023-01-30T04:45:21.642Z,5.41
2023-01-30T04:47:50.706Z,5.37
2023-01-30T04:50:19.590Z,5.35
2023-01-30T04:52:48.542Z,5.35
2023-01-30T04:55:17.250Z,5.29
2023-01-30T04:57:46.025Z,5.29
2023-01-30T05:00:15.374Z,5.30
2023-01-30T05:02:45.363Z,5.32
2023-01-30T05:05:14.281Z,5.38
2023-01-30T05:07:43.612Z,5.35
2023-01-30T05:10:13.660Z,5.38
2023-01-30T05:12:42.447Z,5.34
2023-01-30T05:15:12.173Z,5.37
2023-01-30T05:17:43.085Z,5.38
2023-01-30T05:20:15.905Z,5.37
2023-01-30T05:22:45.967Z,5.38
2023-01-30T05:25:14.851Z,5.39
2023-01-30T05:27:44.607Z,5.41
2023-01-30T05:30:13.955Z,5.42
2023-01-30T05:32:42.555Z,5.40
2023-01-30T05:35:11.467Z,5.39
2023-01-30T05:37:41.509Z,5.33
2023-01-30T05:40:11.907Z,5.28
2023-01-30T05:42:40.386Z,5.23
2023-01-30T05:45:10.541Z,5.19
2023-01-30T05:47:39.045Z,5.16
2023-01-30T05:50:08.408Z,5.12
2023-01-30T05:52:37.032Z,5.08
2023-01-30T05:55:08.762Z,5.06
2023-01-30T05:57:37.375Z,5.03
2023-01-30T06:00:11.304Z,5.00
2023-01-30T06:02:39.927Z,4.97
2023-01-30T06:05:08.993Z,4.96
2023-01-30T06:07:37.553Z,4.96
2023-01-30T06:10:08.185Z,5.00
2023-01-30T06:12:37.726Z,5.04
2023-01-30T06:15:08.557Z,5.08
2023-01-30T06:17:37.103Z,5.09
2023-01-30T06:20:06.441Z,5.06
2023-01-30T06:22:35.181Z,5.00
2023-01-30T06:25:04.253Z,4.95
2023-01-30T06:27:34.933Z,4.90
2023-01-30T06:30:03.935Z,4.87
2023-01-30T06:32:32.880Z,4.82
2023-01-30T06:35:01.478Z,4.74
2023-01-30T06:37:30.038Z,4.68
2023-01-30T06:39:58.608Z,4.66
2023-01-30T06:42:27.312Z,4.58
2023-01-30T06:44:59.462Z,4.53
2023-01-30T06:47:29.012Z,4.50
2023-01-30T06:49:58.499Z,4.46
2023-01-30T06:52:27.015Z,4.45
2023-01-30T06:54:55.738Z,4.40
2023-01-30T06:57:25.274Z,4.36
2023-01-30T06:59:54.986Z,4.28
2023-01-30T07:02:25.032Z,4.24
2023-01-30T07:04:54.493Z,4.20
2023-01-30T07:07:23.118Z,4.17
2023-01-30T07:10:06.882Z,4.10
2023-01-30T07:12:37.697Z,4.07
2023-01-30T07:15:08.669Z,4.05
2023-01-30T07:17:39.043Z,4.02
2023-01-30T07:20:09.686Z,4.01
2023-01-30T07:22:40.353Z,3.98
2023-01-30T07:25:09.934Z,3.98
2023-01-30T07:27:38.535Z,3.98
2023-01-30T07:30:08.425Z,3.89
2023-01-30T07:32:38.855Z,3.87
2023-01-30T07:35:08.408Z,3.85
2023-01-30T07:37:38.340Z,3.82
2023-01-30T07:40:10.821Z,3.79
2023-01-30T07:42:39.466Z,3.78
2023-01-30T07:45:09.314Z,3.81
2023-01-30T07:47:39.459Z,3.84
2023-01-30T07:50:09.190Z,3.91
2023-01-30T07:52:38.190Z,3.93
2023-01-30T07:55:08.443Z,3.96
2023-01-30T07:57:36.956Z,3.97
2023-01-30T08:00:06.838Z,3.98
2023-01-30T08:02:35.303Z,4.05
2023-01-30T08:05:06.425Z,4.03
2023-01-30T08:07:35.075Z,4.05
2023-01-30T08:10:04.190Z,4.09
2023-01-30T08:12:32.936Z,4.19
2023-01-30T08:15:01.474Z,4.26
2023-01-30T08:17:30.833Z,4.41
2023-01-30T08:19:59.499Z,4.41
2023-01-30T08:22:30.909Z,4.44
2023-01-30T08:24:59.480Z,4.40
2023-01-30T08:27:28.037Z,4.42
2023-01-30T08:29:57.749Z,4.44
2023-01-30T08:32:27.611Z,4.44
2023-01-30T08:34:57.689Z,4.47
2023-01-30T08:37:26.279Z,4.48
2023-01-30T08:39:56.142Z,4.51
2023-01-30T08:42:24.574Z,4.56
2023-01-30T08:44:53.031Z,4.63
2023-01-30T08:47:21.510Z,4.65
2023-01-30T08:49:51.706Z,4.71
2023-01-30T08:52:22.491Z,4.77
2023-01-30T08:54:51.300Z,4.77
2023-01-30T08:57:21.664Z,4.82
2023-01-30T08:59:51.522Z,4.84
2023-01-30T09:02:20.226Z,4.92
2023-01-30T09:04:48.599Z,4.94
2023-01-30T09:07:17.259Z,4.90
2023-01-30T09:09:46.158Z,4.91
2023-01-30T09:12:14.792Z,4.93
2023-01-30T09:14:46.129Z,4.93
2023-01-30T09:17:15.224Z,4.91
2023-01-30T09:19:43.539Z,4.91
2023-01-30T09:22:12.148Z,4.92
2023-01-30T09:24:40.739Z,4.92
2023-01-30T09:27:09.352Z,4.94
2023-01-30T09:29:37.800Z,4.93
2023-01-30T09:32:08.860Z,4.98
2023-01-30T09:34:37.466Z,4.95
2023-01-30T09:37:06.406Z,4.90
2023-01-30T09:39:34.906Z,4.92
2023-01-30T09:42:27.179Z,4.92
2023-01-30T09:45:27.769Z,4.97
2023-01-30T09:48:08.501Z,5.02
2023-01-30T09:50:54.778Z,5.03
2023-01-30T09:53:33.271Z,5.06
2023-01-30T09:56:02.578Z,5.05
2023-01-30T09:58:43.071Z,4.99
2023-01-30T10:01:22.085Z,4.99
2023-01-30T10:04:03.034Z,5.00
2023-01-30T10:06:36.785Z,5.03
2023-01-30T10:09:17.005Z,5.06
2023-01-30T10:11:56.788Z,5.07
2023-01-30T10:14:44.834Z,5.13
2023-01-30T10:17:33.424Z,5.15
2023-01-30T10:20:18.655Z,5.19
2023-01-30T10:22:58.774Z,5.18
2023-01-30T10:25:34.445Z,5.15
2023-01-30T10:28:11.517Z,5.15
2023-01-30T10:30:41.207Z,5.13
2023-01-30T10:33:17.556Z,5.12
2023-01-30T10:35:57.763Z,5.11
2023-01-30T10:38:34.949Z,5.10
2023-01-30T10:41:11.970Z,5.12
2023-01-30T10:43:45.430Z,5.15
2023-01-30T10:46:30.149Z,5.17
2023-01-30T10:49:04.435Z,5.21
2023-01-30T10:51:48.509Z,5.26
2023-01-30T10:54:23.962Z,5.31
2023-01-30T10:57:02.697Z,5.33
2023-01-30T10:59:43.528Z,5.40
2023-01-30T11:02:26.494Z,5.45
2023-01-30T11:05:00.753Z,5.52
2023-01-30T11:07:33.652Z,5.60
2023-01-30T11:10:03.353Z,5.68
2023-01-30T11:12:32.126Z,5.73
2023-01-30T11:15:04.507Z,5.76
2023-01-30T11:17:37.650Z,5.79
2023-01-30T11:20:15.173Z,5.80
2023-01-30T11:22:55.412Z,5.85
2023-01-30T11:25:24.729Z,5.85
2023-01-30T11:27:58.278Z,5.91
2023-01-30T11:30:31.287Z,5.96
2023-01-30T11:33:14.949Z,5.97
2023-01-30T11:35:53.982Z,5.98
2023-01-30T11:38:26.874Z,6.07
2023-01-30T11:41:05.840Z,6.09
2023-01-30T11:43:37.430Z,6.14
2023-01-30T11:46:09.403Z,6.13
2023-01-30T11:49:32.460Z,6.17
2023-01-30T11:51:39.065Z,6.22
2023-01-30T11:54:16.176Z,6.43
2023-01-30T11:56:51.803Z,6.97
2023-01-30T11:59:27.129Z,7.37
2023-01-30T12:02:06.078Z,7.44
2023-01-30T12:04:35.390Z,7.41
2023-01-30T12:07:10.354Z,7.24
2023-01-30T12:09:41.152Z,7.11
2023-01-30T12:12:29.318Z,7.00
2023-01-30T12:15:08.362Z,6.88
2023-01-30T12:17:45.865Z,6.83
2023-01-30T12:20:23.841Z,7.22
2023-01-30T12:23:01.703Z,7.63
2023-01-30T12:25:40.360Z,7.82
2023-01-30T12:28:17.306Z,7.71
2023-01-30T12:30:53.189Z,7.47
2023-01-30T12:33:21.956Z,7.34
2023-01-30T12:36:03.699Z,7.23
2023-01-30T12:38:52.159Z,7.16
2023-01-30T12:41:48.535Z,7.14
2023-01-30T12:44:42.745Z,7.15
2023-01-30T12:47:39.552Z,7.43
2023-01-30T12:50:22.592Z,7.88
2023-01-30T12:53:11.645Z,8.10
2023-01-30T12:55:50.187Z,8.18
2023-01-30T12:58:28.174Z,8.27
2023-01-30T13:01:09.382Z,8.21
2023-01-30T13:03:44.985Z,8.40
2023-01-30T13:06:34.258Z,8.48
2023-01-30T13:09:17.719Z,8.70
2023-01-30T13:11:56.666Z,9.01
2023-01-30T13:14:35.627Z,8.88
2023-01-30T13:17:30.377Z,8.49
2023-01-30T13:20:05.441Z,8.29
2023-01-30T13:22:41.280Z,8.24
2023-01-30T13:25:23.294Z,8.16
2023-01-30T13:27:57.958Z,8.10
2023-01-30T13:30:29.247Z,8.07
2023-01-30T13:33:00.869Z,8.04
2023-01-30T13:35:34.623Z,8.04
2023-01-30T13:38:06.076Z,7.99
2023-01-30T13:40:41.518Z,8.00
2023-01-30T13:43:17.398Z,8.00
2023-01-30T13:45:50.762Z,8.03
2023-01-30T13:48:41.785Z,7.99
2023-01-30T13:51:25.430Z,8.03
2023-01-30T13:54:00.594Z,8.03
2023-01-30T13:56:42.211Z,8.07
2023-01-30T13:59:24.251Z,8.08
2023-01-30T14:02:18.550Z,8.19
2023-01-30T14:04:52.184Z,8.27
2023-01-30T14:07:32.724Z,8.53
2023-01-30T14:10:14.033Z,8.44
2023-01-30T14:12:45.212Z,8.43
2023-01-30T14:15:29.287Z,8.31
2023-01-30T14:18:07.665Z,8.21
2023-01-30T14:20:38.076Z,8.23
2023-01-30T14:23:08.663Z,8.18
2023-01-30T14:25:49.951Z,8.16
2023-01-30T14:28:48.261Z,8.17
2023-01-30T14:31:56.089Z,8.21
2023-01-30T14:34:51.237Z,8.14
2023-01-30T14:37:57.246Z,8.11
2023-01-30T14:40:34.613Z,8.10
2023-01-30T14:43:35.999Z,8.14
2023-01-30T14:46:08.958Z,8.10
2023-01-30T14:48:47.149Z,8.08
2023-01-30T14:51:26.408Z,8.08
2023-01-30T14:53:59.767Z,8.18
2023-01-30T14:56:43.227Z,8.15
2023-01-30T14:59:23.183Z,8.13
2023-01-30T15:02:06.505Z,8.11
2023-01-30T15:04:41.955Z,8.07
2023-01-30T15:07:17.021Z,8.08
2023-01-30T15:09:54.248Z,7.99
2023-01-30T15:13:04.784Z,7.96
2023-01-30T15:15:41.979Z,7.98
2023-01-30T15:18:26.705Z,7.92
2023-01-30T15:21:16.711Z,7.93
2023-01-30T15:24:06.471Z,7.91
2023-01-30T15:26:48.479Z,7.90
2023-01-30T15:29:56.384Z,7.92
2023-01-30T15:32:29.181Z,7.91
2023-01-30T15:35:00.184Z,7.88
2023-01-30T15:37:36.294Z,7.90
2023-01-30T15:40:31.192Z,7.92
2023-01-30T15:43:16.818Z,7.90
2023-01-30T15:46:01.943Z,7.85
2023-01-30T15:48:46.668Z,7.82
2023-01-30T15:51:20.947Z,7.83
2023-01-30T15:53:50.495Z,7.82
2023-01-30T15:56:25.160Z,7.90
2023-01-30T15:58:54.317Z,7.80
2023-01-30T16:01:24.169Z,7.78
2023-01-30T16:03:53.850Z,7.77
2023-01-30T16:06:32.986Z,7.74
2023-01-30T16:09:04.070Z,7.74
2023-01-30T16:11:42.284Z,7.77
2023-01-30T16:14:14.575Z,7.76
2023-01-30T16:16:49.120Z,7.81
2023-01-30T16:19:28.568Z,7.77
2023-01-30T16:22:00.436Z,7.76
2023-01-30T16:24:32.319Z,7.75
2023-01-30T16:27:04.714Z,7.70
2023-01-30T16:29:38.913Z,7.69
2023-01-30T16:32:14.994Z,7.67
2023-01-30T16:34:43.580Z,7.68
2023-01-30T16:37:28.641Z,7.64
2023-01-30T16:40:05.538Z,7.61
2023-01-30T16:42:36.290Z,7.60
2023-01-30T16:45:52.962Z,7.66
2023-01-30T16:48:33.593Z,7.61
2023-01-30T16:51:21.028Z,7.56
2023-01-30T16:53:55.049Z,7.56
2023-01-30T16:56:24.122Z,7.54
2023-01-30T16:58:57.789Z,7.51
2023-01-30T17:01:39.099Z,7.50
2023-01-30T17:04:18.890Z,7.51
2023-01-30T17:06:54.811Z,7.50
2023-01-30T17:09:46.239Z,7.45
2023-01-30T17:12:45.554Z,7.46
2023-01-30T17:15:34.561Z,7.42
2023-01-30T17:18:03.995Z,7.46
2023-01-30T17:20:45.847Z,7.43
2023-01-30T17:23:19.106Z,7.43
2023-01-30T17:25:49.737Z,7.38
2023-01-30T17:28:24.404Z,7.37
2023-01-30T17:30:54.875Z,7.37
2023-01-30T17:33:23.447Z,7.39
2023-01-30T17:35:52.070Z,7.36
2023-01-30T17:38:21.560Z,7.34
2023-01-30T17:40:51.031Z,7.41
2023-01-30T17:43:20.789Z,7.35
2023-01-30T17:45:50.347Z,7.34
2023-01-30T17:48:21.647Z,7.34
2023-01-30T17:50:50.346Z,7.33
2023-01-30T17:53:19.757Z,7.30
2023-01-30T17:55:48.794Z,7.32
2023-01-30T17:58:23.576Z,7.29
2023-01-30T18:01:00.994Z,7.30
2023-01-30T18:03:33.173Z,7.24
2023-01-30T18:06:03.135Z,7.27
2023-01-30T18:08:31.796Z,7.30
2023-01-30T18:11:00.557Z,7.35
2023-01-30T18:13:28.932Z,7.29
2023-01-30T18:16:01.342Z,7.32
2023-01-30T18:18:31.545Z,7.32
2023-01-30T18:21:03.754Z,7.24
2023-01-30T18:23:34.737Z,7.22
2023-01-30T18:26:03.490Z,7.29
2023-01-30T18:28:33.298Z,7.27
2023-01-30T18:31:02.071Z,7.26
2023-01-30T18:33:32.018Z,7.27
2023-01-30T18:36:06.206Z,7.24
2023-01-30T18:38:35.119Z,7.20
2023-01-30T18:41:09.128Z,7.22
2023-01-30T18:43:40.267Z,7.21
2023-01-30T18:46:10.450Z,7.22
2023-01-30T18:48:39.146Z,7.22
2023-01-30T18:51:18.247Z,7.19
2023-01-30T18:53:56.961Z,7.24
2023-01-30T18:56:27.277Z,7.20
2023-01-30T18:58:56.562Z,7.18
2023-01-30T19:01:27.348Z,7.13
2023-01-30T19:04:05.986Z,7.17
2023-01-30T19:06:37.667Z,7.23
2023-01-30T19:09:07.433Z,7.29
2023-01-30T19:11:53.401Z,7.25
2023-01-30T19:14:23.186Z,7.26
2023-01-30T19:16:54.958Z,7.29
2023-01-30T19:19:23.963Z,7.27
2023-01-30T19:21:54.074Z,7.17
2023-01-30T19:24:27.790Z,7.16
2023-01-30T19:26:56.977Z,7.19
2023-01-30T19:29:26.670Z,7.21
2023-01-30T19:32:04.139Z,7.34
2023-01-30T19:34:34.730Z,7.31
2023-01-30T19:37:10.848Z,7.26
2023-01-30T19:39:42.534Z,7.29
2023-01-30T19:42:11.123Z,7.26
2023-01-30T19:44:41.245Z,7.26
2023-01-30T19:47:11.080Z,7.27
2023-01-30T19:49:40.654Z,7.23
2023-01-30T19:52:10.815Z,7.16
2023-01-30T19:54:39.526Z,7.19
2023-01-30T19:57:10.150Z,7.16
2023-01-30T19:59:39.638Z,7.15
2023-01-30T20:02:11.586Z,7.21
2023-01-30T20:04:41.308Z,7.24
2023-01-30T20:07:14.370Z,7.32
2023-01-30T20:09:45.917Z,7.29
2023-01-30T20:12:16.306Z,7.31
2023-01-30T20:14:44.983Z,7.32
2023-01-30T20:17:14.710Z,7.32
2023-01-30T20:19:45.551Z,7.41
2023-01-30T20:22:16.483Z,7.46
2023-01-30T20:24:45.220Z,7.59
2023-01-30T20:27:13.976Z,7.61
2023-01-30T20:29:44.461Z,7.55
2023-01-30T20:32:13.846Z,7.55
2023-01-30T20:34:42.600Z,7.62
2023-01-30T20:37:11.418Z,7.63
2023-01-30T20:39:41.563Z,7.60
2023-01-30T20:42:10.039Z,7.61
2023-01-30T20:44:39.934Z,7.63
2023-01-30T20:47:09.929Z,7.64
2023-01-30T20:49:38.678Z,7.60
2023-01-30T20:52:08.406Z,7.67
2023-01-30T20:54:38.328Z,7.71
2023-01-30T20:57:08.445Z,7.72
2023-01-30T20:59:37.367Z,7.76
2023-01-30T21:02:12.005Z,7.82
2023-01-30T21:04:40.602Z,7.83
2023-01-30T21:07:08.965Z,7.89
2023-01-30T21:09:40.504Z,7.94
2023-01-30T21:12:11.777Z,7.88
2023-01-30T21:14:40.508Z,7.86
2023-01-30T21:17:09.115Z,7.86
2023-01-30T21:19:38.374Z,7.92
2023-01-30T21:22:12.546Z,7.90
2023-01-30T21:24:40.976Z,7.96
2023-01-30T21:27:11.134Z,7.95
2023-01-30T21:29:40.409Z,7.89
2023-01-30T21:32:09.045Z,7.83
2023-01-30T21:34:39.234Z,7.74
2023-01-30T21:37:25.652Z,7.69
2023-01-30T21:40:11.672Z,7.66
2023-01-30T21:42:58.807Z,7.62
2023-01-30T21:45:27.688Z,7.61
2023-01-30T21:47:56.762Z,7.59
2023-01-30T21:50:25.406Z,7.59
2023-01-30T21:52:54.027Z,7.60
2023-01-30T21:55:22.588Z,7.58
2023-01-30T21:57:55.551Z,7.67
2023-01-30T22:00:24.238Z,7.74
2023-01-30T22:02:52.894Z,7.79
2023-01-30T22:05:21.878Z,7.88
2023-01-30T22:07:52.080Z,7.92
2023-01-30T22:10:20.769Z,7.89
2023-01-30T22:12:49.330Z,7.85
2023-01-30T22:15:21.271Z,7.86
2023-01-30T22:17:50.576Z,7.84
2023-01-30T22:20:19.377Z,7.76
2023-01-30T22:22:49.333Z,7.78
2023-01-30T22:25:18.375Z,7.83
2023-01-30T22:27:48.255Z,7.76
2023-01-30T22:30:19.118Z,7.76
2023-01-30T22:32:47.780Z,7.77
2023-01-30T22:35:16.608Z,7.79
2023-01-30T22:37:45.022Z,7.77
2023-01-30T22:40:14.091Z,7.74
2023-01-30T22:42:49.316Z,7.72
2023-01-30T22:45:20.614Z,7.72
2023-01-30T22:47:50.522Z,7.68
2023-01-30T22:50:19.506Z,7.65
2023-01-30T22:52:50.217Z,7.71
2023-01-30T22:55:20.065Z,7.69
2023-01-30T22:57:48.718Z,7.68
2023-01-30T23:00:18.076Z,7.68
2023-01-30T23:02:49.226Z,7.67
2023-01-30T23:05:18.083Z,7.73
2023-01-30T23:07:54.293Z,7.74
2023-01-30T23:10:22.856Z,7.75
2023-01-30T23:13:08.240Z,7.72
2023-01-30T23:15:41.140Z,7.68
2023-01-30T23:18:31.978Z,7.67
2023-01-30T23:21:01.476Z,7.66
2023-01-30T23:23:30.110Z,7.62
2023-01-30T23:26:02.729Z,7.67
2023-01-30T23:28:31.428Z,7.68
2023-01-30T23:30:59.932Z,7.60
2023-01-30T23:33:30.320Z,7.54
2023-01-30T23:36:04.087Z,7.49
2023-01-30T23:38:33.266Z,7.51
2023-01-30T23:41:11.421Z,7.51
2023-01-30T23:43:41.716Z,7.56
2023-01-30T23:46:16.984Z,7.58
2023-01-30T23:48:50.304Z,7.67
2023-01-30T23:51:20.218Z,7.64
2023-01-30T23:53:49.685Z,7.69
2023-01-30T23:56:18.541Z,7.73
2023-01-30T23:58:47.586Z,7.72
